sensor_id;sensor_type;location;lat;lon;timestamp;pressure;altitude;pressure_sealevel;temperature;humidity
8705;BME280;4389;41.932;25.904;2024-03-07T00:02:08;-16288.81;;;8.28;100.00
8705;BME280;4389;41.932;25.904;2024-03-07T00:04:36;-16287.47;;;8.23;100.00
8705;BME280;4389;41.932;25.904;2024-03-07T00:07:03;-16287.75;;;8.24;100.00
8705;BME280;4389;41.932;25.904;2024-03-07T00:09:31;-16289.34;;;8.30;100.00
8705;BME280;4389;41.932;25.904;2024-03-07T00:11:58;-16287.47;;;8.23;100.00
8705;BME280;4389;41.932;25.904;2024-03-07T00:14:25;-16289.34;;;8.30;100.00
8705;BME280;4389;41.932;25.904;2024-03-07T00:16:53;-16288.81;;;8.28;100.00
8705;BME280;4389;41.932;25.904;2024-03-07T00:19:20;-16286.94;;;8.21;100.00
8705;BME280;4389;41.932;25.904;2024-03-07T00:21:52;-16288.00;;;8.25;100.00
8705;BME280;4389;41.932;25.904;2024-03-07T00:24:19;-16287.47;;;8.23;100.00
8705;BME280;4389;41.932;25.904;2024-03-07T00:26:45;-16288.81;;;8.28;100.00
8705;BME280;4389;41.932;25.904;2024-03-07T00:29:15;-16284.81;;;8.13;100.00
8705;BME280;4389;41.932;25.904;2024-03-07T00:31:43;-16283.88;;;8.09;100.00
8705;BME280;4389;41.932;25.904;2024-03-07T00:34:11;-16284.53;;;8.12;100.00
8705;BME280;4389;41.932;25.904;2024-03-07T00:36:39;-16283.75;;;8.09;100.00
8705;BME280;4389;41.932;25.904;2024-03-07T00:39:07;-16285.34;;;8.15;100.00
8705;BME280;4389;41.932;25.904;2024-03-07T00:41:37;-16286.53;;;8.19;100.00
8705;BME280;4389;41.932;25.904;2024-03-07T00:44:04;-16287.59;;;8.23;100.00
8705;BME280;4389;41.932;25.904;2024-03-07T00:46:31;-16288.94;;;8.28;100.00
8705;BME280;4389;41.932;25.904;2024-03-07T00:48:58;-16289.88;;;8.32;100.00
8705;BME280;4389;41.932;25.904;2024-03-07T00:51:25;-16288.53;;;8.27;100.00
8705;BME280;4389;41.932;25.904;2024-03-07T00:53:51;-16287.59;;;8.23;100.00
8705;BME280;4389;41.932;25.904;2024-03-07T00:56:20;-16290.94;;;8.36;100.00
8705;BME280;4389;41.932;25.904;2024-03-07T00:58:47;-16290.13;;;8.33;100.00
8705;BME280;4389;41.932;25.904;2024-03-07T01:01:14;-16290.66;;;8.35;100.00
8705;BME280;4389;41.932;25.904;2024-03-07T01:03:41;-16292.00;;;8.40;100.00
8705;BME280;4389;41.932;25.904;2024-03-07T01:06:08;-16290.41;;;8.34;100.00
8705;BME280;4389;41.932;25.904;2024-03-07T01:08:35;-16292.00;;;8.40;100.00
8705;BME280;4389;41.932;25.904;2024-03-07T01:11:02;-16293.34;;;8.45;100.00
8705;BME280;4389;41.932;25.904;2024-03-07T01:13:36;-16289.06;;;8.29;100.00
8705;BME280;4389;41.932;25.904;2024-03-07T01:16:03;-16288.81;;;8.28;100.00
8705;BME280;4389;41.932;25.904;2024-03-07T01:18:30;-16289.88;;;8.32;100.00
8705;BME280;4389;41.932;25.904;2024-03-07T01:20:57;-16289.22;;;8.29;100.00
8705;BME280;4389;41.932;25.904;2024-03-07T01:23:23;-16289.34;;;8.30;100.00
8705;BME280;4389;41.932;25.904;2024-03-07T01:25:50;-16289.75;;;8.31;100.00
8705;BME280;4389;41.932;25.904;2024-03-07T01:28:17;-16291.72;;;8.39;100.00
8705;BME280;4389;41.932;25.904;2024-03-07T01:30:45;-16290.66;;;8.35;100.00
8705;BME280;4389;41.932;25.904;2024-03-07T01:33:12;-16289.22;;;8.29;100.00
8705;BME280;4389;41.932;25.904;2024-03-07T01:35:39;-16291.06;;;8.36;100.00
8705;BME280;4389;41.932;25.904;2024-03-07T01:38:06;-16292.53;;;8.42;100.00
8705;BME280;4389;41.932;25.904;2024-03-07T01:40:34;-16290.13;;;8.33;100.00
8705;BME280;4389;41.932;25.904;2024-03-07T01:43:01;-16293.34;;;8.45;100.00
8705;BME280;4389;41.932;25.904;2024-03-07T01:45:28;-16292.13;;;8.40;100.00
8705;BME280;4389;41.932;25.904;2024-03-07T01:47:56;-16293.34;;;8.45;100.00
8705;BME280;4389;41.932;25.904;2024-03-07T01:50:23;-16290.41;;;8.34;100.00
8705;BME280;4389;41.932;25.904;2024-03-07T01:52:50;-16289.06;;;8.29;100.00
8705;BME280;4389;41.932;25.904;2024-03-07T01:55:21;-16287.06;;;8.21;100.00
8705;BME280;4389;41.932;25.904;2024-03-07T01:57:48;-16289.22;;;8.29;100.00
8705;BME280;4389;41.932;25.904;2024-03-07T02:00:16;-16290.13;;;8.33;100.00
8705;BME280;4389;41.932;25.904;2024-03-07T02:02:43;-16291.72;;;8.39;100.00
8705;BME280;4389;41.932;25.904;2024-03-07T02:05:12;-16287.34;;;8.22;100.00
8705;BME280;4389;41.932;25.904;2024-03-07T02:07:40;-16288.81;;;8.28;100.00
8705;BME280;4389;41.932;25.904;2024-03-07T02:10:07;-16288.41;;;8.26;100.00
8705;BME280;4389;41.932;25.904;2024-03-07T02:12:34;-16290.41;;;8.34;100.00
8705;BME280;4389;41.932;25.904;2024-03-07T02:15:01;-16290.41;;;8.34;100.00
8705;BME280;4389;41.932;25.904;2024-03-07T02:17:28;-16289.88;;;8.32;100.00
8705;BME280;4389;41.932;25.904;2024-03-07T02:19:55;-16290.94;;;8.36;100.00
8705;BME280;4389;41.932;25.904;2024-03-07T02:22:24;-16291.19;;;8.37;100.00
8705;BME280;4389;41.932;25.904;2024-03-07T02:24:52;-16289.34;;;8.30;100.00
8705;BME280;4389;41.932;25.904;2024-03-07T02:27:19;-16289.59;;;8.31;100.00
8705;BME280;4389;41.932;25.904;2024-03-07T02:29:46;-16287.34;;;8.22;100.00
8705;BME280;4389;41.932;25.904;2024-03-07T02:32:13;-16290.13;;;8.33;100.00
8705;BME280;4389;41.932;25.904;2024-03-07T02:34:40;-16284.69;;;8.12;100.00
8705;BME280;4389;41.932;25.904;2024-03-07T02:37:06;-16284.16;;;8.10;100.00
8705;BME280;4389;41.932;25.904;2024-03-07T02:39:36;-16285.88;;;8.17;100.00
8705;BME280;4389;41.932;25.904;2024-03-07T02:42:03;-16286.94;;;8.21;100.00
8705;BME280;4389;41.932;25.904;2024-03-07T02:44:30;-16284.69;;;8.12;100.00
8705;BME280;4389;41.932;25.904;2024-03-07T02:46:57;-16284.00;;;8.10;100.00
8705;BME280;4389;41.932;25.904;2024-03-07T02:49:23;-16284.53;;;8.12;100.00
8705;BME280;4389;41.932;25.904;2024-03-07T02:51:50;-16284.28;;;8.11;100.00
8705;BME280;4389;41.932;25.904;2024-03-07T02:54:17;-16284.69;;;8.12;100.00
8705;BME280;4389;41.932;25.904;2024-03-07T02:56:45;-16286.94;;;8.21;100.00
8705;BME280;4389;41.932;25.904;2024-03-07T02:59:12;-16287.06;;;8.21;100.00
8705;BME280;4389;41.932;25.904;2024-03-07T03:01:39;-16287.22;;;8.22;100.00
8705;BME280;4389;41.932;25.904;2024-03-07T03:04:06;-16286.13;;;8.18;100.00
8705;BME280;4389;41.932;25.904;2024-03-07T03:06:33;-16286.69;;;8.20;100.00
8705;BME280;4389;41.932;25.904;2024-03-07T03:09:00;-16289.88;;;8.32;100.00
8705;BME280;4389;41.932;25.904;2024-03-07T03:11:30;-16289.34;;;8.30;100.00
8705;BME280;4389;41.932;25.904;2024-03-07T03:13:58;-16288.28;;;8.26;100.00
8705;BME280;4389;41.932;25.904;2024-03-07T03:16:25;-16288.69;;;8.27;100.00
8705;BME280;4389;41.932;25.904;2024-03-07T03:18:52;-16289.34;;;8.30;100.00
8705;BME280;4389;41.932;25.904;2024-03-07T03:21:19;-16290.00;;;8.32;100.00
8705;BME280;4389;41.932;25.904;2024-03-07T03:23:47;-16291.06;;;8.36;100.00
8705;BME280;4389;41.932;25.904;2024-03-07T03:26:14;-16289.75;;;8.31;100.00
8705;BME280;4389;41.932;25.904;2024-03-07T03:28:41;-16290.41;;;8.34;100.00
8705;BME280;4389;41.932;25.904;2024-03-07T03:31:09;-16292.25;;;8.41;100.00
8705;BME280;4389;41.932;25.904;2024-03-07T03:33:39;-16285.88;;;8.17;100.00
8705;BME280;4389;41.932;25.904;2024-03-07T03:36:06;-16287.75;;;8.24;100.00
8705;BME280;4389;41.932;25.904;2024-03-07T03:38:33;-16288.81;;;8.28;100.00
8705;BME280;4389;41.932;25.904;2024-03-07T03:41:00;-16286.94;;;8.21;100.00
8705;BME280;4389;41.932;25.904;2024-03-07T03:43:27;-16286.94;;;8.21;100.00
8705;BME280;4389;41.932;25.904;2024-03-07T03:45:54;-16286.13;;;8.18;100.00
8705;BME280;4389;41.932;25.904;2024-03-07T03:48:23;-16289.06;;;8.29;100.00
8705;BME280;4389;41.932;25.904;2024-03-07T03:50:49;-16288.00;;;8.25;100.00
8705;BME280;4389;41.932;25.904;2024-03-07T03:53:17;-16288.81;;;8.28;100.00
8705;BME280;4389;41.932;25.904;2024-03-07T03:55:44;-16289.59;;;8.31;100.00
8705;BME280;4389;41.932;25.904;2024-03-07T03:58:11;-16290.66;;;8.35;100.00
8705;BME280;4389;41.932;25.904;2024-03-07T04:00:38;-16291.72;;;8.39;100.00
8705;BME280;4389;41.932;25.904;2024-03-07T04:03:04;-16289.75;;;8.31;100.00
8705;BME280;4389;41.932;25.904;2024-03-07T04:05:33;-16289.59;;;8.31;100.00
8705;BME280;4389;41.932;25.904;2024-03-07T04:08:00;-16290.13;;;8.33;100.00
8705;BME280;4389;41.932;25.904;2024-03-07T04:10:27;-16290.13;;;8.33;100.00
8705;BME280;4389;41.932;25.904;2024-03-07T04:12:54;-16288.53;;;8.27;100.00
8705;BME280;4389;41.932;25.904;2024-03-07T04:15:21;-16287.22;;;8.22;100.00
8705;BME280;4389;41.932;25.904;2024-03-07T04:17:52;-16289.59;;;8.31;100.00
8705;BME280;4389;41.932;25.904;2024-03-07T04:20:19;-16290.66;;;8.35;100.00
8705;BME280;4389;41.932;25.904;2024-03-07T04:22:47;-16287.75;;;8.24;100.00
8705;BME280;4389;41.932;25.904;2024-03-07T04:25:14;-16288.00;;;8.25;100.00
8705;BME280;4389;41.932;25.904;2024-03-07T04:27:41;-16290.66;;;8.35;100.00
8705;BME280;4389;41.932;25.904;2024-03-07T04:30:08;-16287.59;;;8.23;100.00
8705;BME280;4389;41.932;25.904;2024-03-07T04:32:36;-16284.94;;;8.13;100.00
8705;BME280;4389;41.932;25.904;2024-03-07T04:35:03;-16286.69;;;8.20;100.00
8705;BME280;4389;41.932;25.904;2024-03-07T04:37:33;-16285.88;;;8.17;100.00
8705;BME280;4389;41.932;25.904;2024-03-07T04:40:05;-16287.34;;;8.22;100.00
8705;BME280;4389;41.932;25.904;2024-03-07T04:42:41;-16288.53;;;8.27;100.00
8705;BME280;4389;41.932;25.904;2024-03-07T04:45:08;-16287.34;;;8.22;100.00
8705;BME280;4389;41.932;25.904;2024-03-07T04:47:38;-16287.06;;;8.21;100.00
8705;BME280;4389;41.932;25.904;2024-03-07T04:50:06;-16286.69;;;8.20;100.00
8705;BME280;4389;41.932;25.904;2024-03-07T04:52:33;-16285.22;;;8.14;100.00
8705;BME280;4389;41.932;25.904;2024-03-07T04:55:00;-16285.59;;;8.16;100.00
8705;BME280;4389;41.932;25.904;2024-03-07T04:57:28;-16288.16;;;8.25;100.00
8705;BME280;4389;41.932;25.904;2024-03-07T04:59:55;-16285.59;;;8.16;100.00
8705;BME280;4389;41.932;25.904;2024-03-07T05:02:22;-16285.59;;;8.16;100.00
8705;BME280;4389;41.932;25.904;2024-03-07T05:04:50;-16284.81;;;8.13;100.00
8705;BME280;4389;41.932;25.904;2024-03-07T05:07:17;-16286.94;;;8.21;100.00
8705;BME280;4389;41.932;25.904;2024-03-07T05:09:44;-16286.00;;;8.17;100.00
8705;BME280;4389;41.932;25.904;2024-03-07T05:12:11;-16285.34;;;8.15;100.00
8705;BME280;4389;41.932;25.904;2024-03-07T05:14:40;-16285.34;;;8.15;100.00
8705;BME280;4389;41.932;25.904;2024-03-07T05:17:06;-16282.69;;;8.05;100.00
8705;BME280;4389;41.932;25.904;2024-03-07T05:19:35;-16285.88;;;8.17;100.00
8705;BME280;4389;41.932;25.904;2024-03-07T05:22:02;-16284.81;;;8.13;100.00
8705;BME280;4389;41.932;25.904;2024-03-07T05:24:32;-16283.06;;;8.06;100.00
8705;BME280;4389;41.932;25.904;2024-03-07T05:26:59;-16284.00;;;8.10;100.00
8705;BME280;4389;41.932;25.904;2024-03-07T05:29:26;-16285.88;;;8.17;100.00
8705;BME280;4389;41.932;25.904;2024-03-07T05:31:54;-16283.88;;;8.09;100.00
8705;BME280;4389;41.932;25.904;2024-03-07T05:34:21;-16283.47;;;8.08;100.00
8705;BME280;4389;41.932;25.904;2024-03-07T05:36:49;-16284.81;;;8.13;100.00
8705;BME280;4389;41.932;25.904;2024-03-07T05:39:16;-16286.94;;;8.21;100.00
8705;BME280;4389;41.932;25.904;2024-03-07T05:41:45;-16285.59;;;8.16;100.00
8705;BME280;4389;41.932;25.904;2024-03-07T05:44:12;-16286.41;;;8.19;100.00
8705;BME280;4389;41.932;25.904;2024-03-07T05:46:39;-16285.06;;;8.14;100.00
8705;BME280;4389;41.932;25.904;2024-03-07T05:49:12;-16284.53;;;8.12;100.00
8705;BME280;4389;41.932;25.904;2024-03-07T05:51:40;-16287.22;;;8.22;100.00
8705;BME280;4389;41.932;25.904;2024-03-07T05:54:10;-16287.88;;;8.24;100.00
8705;BME280;4389;41.932;25.904;2024-03-07T05:56:38;-16290.41;;;8.34;100.00
8705;BME280;4389;41.932;25.904;2024-03-07T05:59:06;-16292.25;;;8.41;100.00
8705;BME280;4389;41.932;25.904;2024-03-07T06:01:35;-16293.06;;;8.44;100.00
8705;BME280;4389;41.932;25.904;2024-03-07T06:04:02;-16293.72;;;8.46;100.00
8705;BME280;4389;41.932;25.904;2024-03-07T06:06:33;-16294.66;;;8.50;100.00
8705;BME280;4389;41.932;25.904;2024-03-07T06:09:01;-16296.78;;;8.58;100.00
8705;BME280;4389;41.932;25.904;2024-03-07T06:11:32;-16296.00;;;8.55;100.00
8705;BME280;4389;41.932;25.904;2024-03-07T06:13:59;-16297.59;;;8.61;100.00
8705;BME280;4389;41.932;25.904;2024-03-07T06:16:28;-16302.00;;;8.77;100.00
8705;BME280;4389;41.932;25.904;2024-03-07T06:18:58;-16301.47;;;8.75;100.00
8705;BME280;4389;41.932;25.904;2024-03-07T06:21:25;-16298.25;;;8.63;100.00
8705;BME280;4389;41.932;25.904;2024-03-07T06:23:53;-16297.31;;;8.60;100.00
8705;BME280;4389;41.932;25.904;2024-03-07T06:26:25;-16299.47;;;8.68;100.00
8705;BME280;4389;41.932;25.904;2024-03-07T06:29:03;-16302.50;;;8.79;100.00
8705;BME280;4389;41.932;25.904;2024-03-07T06:31:32;-16301.59;;;8.76;100.00
8705;BME280;4389;41.932;25.904;2024-03-07T06:33:58;-16301.47;;;8.75;100.00
8705;BME280;4389;41.932;25.904;2024-03-07T06:36:25;-16304.25;;;8.86;100.00
8705;BME280;4389;41.932;25.904;2024-03-07T06:38:55;-16305.56;;;8.90;100.00
8705;BME280;4389;41.932;25.904;2024-03-07T06:41:21;-16305.97;;;8.92;100.00
8705;BME280;4389;41.932;25.904;2024-03-07T06:43:50;-16306.13;;;8.93;100.00
8705;BME280;4389;41.932;25.904;2024-03-07T06:46:18;-16311.97;;;9.14;100.00
8705;BME280;4389;41.932;25.904;2024-03-07T06:48:45;-16314.22;;;9.23;100.00
8705;BME280;4389;41.932;25.904;2024-03-07T06:51:12;-16315.28;;;9.27;100.00
8705;BME280;4389;41.932;25.904;2024-03-07T06:53:39;-16318.09;;;9.37;100.00
8705;BME280;4389;41.932;25.904;2024-03-07T06:56:08;-16316.09;;;9.30;100.00
8705;BME280;4389;41.932;25.904;2024-03-07T06:58:36;-16318.34;;;9.38;100.00
8705;BME280;4389;41.932;25.904;2024-03-07T07:01:03;-16317.03;;;9.33;100.00
8705;BME280;4389;41.932;25.904;2024-03-07T07:03:34;-16321.16;;;9.49;100.00
8705;BME280;4389;41.932;25.904;2024-03-07T07:06:02;-16319.16;;;9.41;100.00
8705;BME280;4389;41.932;25.904;2024-03-07T07:08:31;-16313.28;;;9.19;100.00
8705;BME280;4389;41.932;25.904;2024-03-07T07:10:58;-16311.44;;;9.12;100.00
8705;BME280;4389;41.932;25.904;2024-03-07T07:13:27;-16314.38;;;9.23;100.00
8705;BME280;4389;41.932;25.904;2024-03-07T07:15:53;-16311.31;;;9.12;100.00
8705;BME280;4389;41.932;25.904;2024-03-07T07:18:20;-16312.75;;;9.17;100.00
8705;BME280;4389;41.932;25.904;2024-03-07T07:20:49;-16308.09;;;9.00;100.00
8705;BME280;4389;41.932;25.904;2024-03-07T07:23:17;-16310.38;;;9.08;100.00
8705;BME280;4389;41.932;25.904;2024-03-07T07:25:45;-16309.84;;;9.06;100.00
8705;BME280;4389;41.932;25.904;2024-03-07T07:28:12;-16310.91;;;9.10;100.00
8705;BME280;4389;41.932;25.904;2024-03-07T07:30:40;-16313.16;;;9.19;100.00
8705;BME280;4389;41.932;25.904;2024-03-07T07:33:07;-16314.91;;;9.25;100.00
8705;BME280;4389;41.932;25.904;2024-03-07T07:35:34;-16314.63;;;9.24;100.00
8705;BME280;4389;41.932;25.904;2024-03-07T07:38:01;-16312.22;;;9.15;100.00
8705;BME280;4389;41.932;25.904;2024-03-07T07:40:28;-16316.50;;;9.31;100.00
8705;BME280;4389;41.932;25.904;2024-03-07T07:42:56;-16318.63;;;9.39;100.00
8705;BME280;4389;41.932;25.904;2024-03-07T07:45:23;-16313.28;;;9.19;100.00
8705;BME280;4389;41.932;25.904;2024-03-07T07:47:52;-16311.69;;;9.13;100.00
8705;BME280;4389;41.932;25.904;2024-03-07T07:50:21;-16312.22;;;9.15;100.00
8705;BME280;4389;41.932;25.904;2024-03-07T07:52:49;-16315.16;;;9.26;100.00
8705;BME280;4389;41.932;25.904;2024-03-07T07:55:17;-16312.50;;;9.16;100.00
8705;BME280;4389;41.932;25.904;2024-03-07T07:57:45;-16313.69;;;9.21;100.00
8705;BME280;4389;41.932;25.904;2024-03-07T08:00:14;-16317.56;;;9.35;100.00
8705;BME280;4389;41.932;25.904;2024-03-07T08:02:53;-16321.16;;;9.49;100.00
8705;BME280;4389;41.932;25.904;2024-03-07T08:05:20;-16319.16;;;9.41;100.00
8705;BME280;4389;41.932;25.904;2024-03-07T08:07:48;-16317.56;;;9.35;100.00
8705;BME280;4389;41.932;25.904;2024-03-07T08:10:17;-16319.81;;;9.44;100.00
8705;BME280;4389;41.932;25.904;2024-03-07T08:12:44;-16317.28;;;9.34;100.00
8705;BME280;4389;41.932;25.904;2024-03-07T08:15:12;-16309.97;;;9.07;100.00
8705;BME280;4389;41.932;25.904;2024-03-07T08:17:43;-16307.97;;;8.99;100.00
8705;BME280;4389;41.932;25.904;2024-03-07T08:20:13;-16309.31;;;9.04;100.00
8705;BME280;4389;41.932;25.904;2024-03-07T08:22:41;-16310.91;;;9.10;100.00
8705;BME280;4389;41.932;25.904;2024-03-07T08:25:09;-16310.09;;;9.07;100.00
8705;BME280;4389;41.932;25.904;2024-03-07T08:27:36;-16309.31;;;9.04;100.00
8705;BME280;4389;41.932;25.904;2024-03-07T08:30:05;-16310.09;;;9.07;100.00
8705;BME280;4389;41.932;25.904;2024-03-07T08:32:33;-16307.44;;;8.97;100.00
8705;BME280;4389;41.932;25.904;2024-03-07T08:35:03;-16307.19;;;8.96;100.00
8705;BME280;4389;41.932;25.904;2024-03-07T08:37:35;-16307.97;;;8.99;100.00
8705;BME280;4389;41.932;25.904;2024-03-07T08:40:02;-16307.03;;;8.96;100.00
8705;BME280;4389;41.932;25.904;2024-03-07T08:42:32;-16305.56;;;8.90;100.00
8705;BME280;4389;41.932;25.904;2024-03-07T08:44:59;-16303.84;;;8.84;100.00
8705;BME280;4389;41.932;25.904;2024-03-07T08:47:27;-16300.66;;;8.72;100.00
8705;BME280;4389;41.932;25.904;2024-03-07T08:49:56;-16301.59;;;8.76;100.00
8705;BME280;4389;41.932;25.904;2024-03-07T08:52:22;-16301.84;;;8.77;100.00
8705;BME280;4389;41.932;25.904;2024-03-07T08:54:50;-16299.47;;;8.68;100.00
8705;BME280;4389;41.932;25.904;2024-03-07T08:57:17;-16302.91;;;8.81;100.00
8705;BME280;4389;41.932;25.904;2024-03-07T08:59:45;-16303.72;;;8.83;100.00
8705;BME280;4389;41.932;25.904;2024-03-07T09:02:12;-16303.97;;;8.85;100.00
8705;BME280;4389;41.932;25.904;2024-03-07T09:04:39;-16305.03;;;8.88;100.00
8705;BME280;4389;41.932;25.904;2024-03-07T09:07:07;-16304.78;;;8.88;100.00
8705;BME280;4389;41.932;25.904;2024-03-07T09:09:34;-16304.38;;;8.86;100.00
8705;BME280;4389;41.932;25.904;2024-03-07T09:12:02;-16302.66;;;8.80;100.00
8705;BME280;4389;41.932;25.904;2024-03-07T09:14:30;-16305.03;;;8.88;100.00
8705;BME280;4389;41.932;25.904;2024-03-07T09:16:57;-16303.97;;;8.85;100.00
8705;BME280;4389;41.932;25.904;2024-03-07T09:19:24;-16306.91;;;8.95;100.00
8705;BME280;4389;41.932;25.904;2024-03-07T09:21:51;-16304.13;;;8.85;100.00
8705;BME280;4389;41.932;25.904;2024-03-07T09:24:18;-16307.03;;;8.96;100.00
8705;BME280;4389;41.932;25.904;2024-03-07T09:26:47;-16308.78;;;9.02;100.00
8705;BME280;4389;41.932;25.904;2024-03-07T09:29:15;-16308.25;;;9.00;100.00
8705;BME280;4389;41.932;25.904;2024-03-07T09:31:44;-16304.78;;;8.88;100.00
8705;BME280;4389;41.932;25.904;2024-03-07T09:34:12;-16307.03;;;8.96;100.00
8705;BME280;4389;41.932;25.904;2024-03-07T09:36:40;-16305.97;;;8.92;100.00
8705;BME280;4389;41.932;25.904;2024-03-07T09:39:08;-16305.56;;;8.90;100.00
8705;BME280;4389;41.932;25.904;2024-03-07T09:41:38;-16309.31;;;9.04;100.00
8705;BME280;4389;41.932;25.904;2024-03-07T09:44:08;-16307.56;;;8.98;100.00
8705;BME280;4389;41.932;25.904;2024-03-07T09:46:38;-16311.16;;;9.11;100.00
8705;BME280;4389;41.932;25.904;2024-03-07T09:49:07;-16313.56;;;9.20;100.00
8705;BME280;4389;41.932;25.904;2024-03-07T09:51:37;-16316.50;;;9.31;100.00
8705;BME280;4389;41.932;25.904;2024-03-07T09:54:04;-16317.03;;;9.33;100.00
8705;BME280;4389;41.932;25.904;2024-03-07T09:56:31;-16314.22;;;9.23;100.00
8705;BME280;4389;41.932;25.904;2024-03-07T09:59:00;-16313.56;;;9.20;100.00
8705;BME280;4389;41.932;25.904;2024-03-07T10:01:30;-16311.44;;;9.12;100.00
8705;BME280;4389;41.932;25.904;2024-03-07T10:04:01;-16312.09;;;9.15;100.00
8705;BME280;4389;41.932;25.904;2024-03-07T10:06:37;-16313.03;;;9.18;100.00
8705;BME280;4389;41.932;25.904;2024-03-07T10:09:04;-16314.22;;;9.23;100.00
8705;BME280;4389;41.932;25.904;2024-03-07T10:11:32;-16316.22;;;9.30;100.00
8705;BME280;4389;41.932;25.904;2024-03-07T10:13:59;-16316.75;;;9.32;100.00
8705;BME280;4389;41.932;25.904;2024-03-07T10:16:29;-16317.94;;;9.37;100.00
8705;BME280;4389;41.932;25.904;2024-03-07T10:18:56;-16318.88;;;9.40;100.00
8705;BME280;4389;41.932;25.904;2024-03-07T10:21:25;-16321.69;;;9.51;100.00
8705;BME280;4389;41.932;25.904;2024-03-07T10:24:04;-16320.75;;;9.47;100.00
8705;BME280;4389;41.932;25.904;2024-03-07T10:26:34;-16319.94;;;9.44;100.00
8705;BME280;4389;41.932;25.904;2024-03-07T10:29:03;-16320.22;;;9.45;100.00
8705;BME280;4389;41.932;25.904;2024-03-07T10:31:31;-16318.63;;;9.39;100.00
8705;BME280;4389;41.932;25.904;2024-03-07T10:33:59;-16316.50;;;9.31;100.00
8705;BME280;4389;41.932;25.904;2024-03-07T10:36:29;-16317.03;;;9.33;100.00
8705;BME280;4389;41.932;25.904;2024-03-07T10:38:58;-16321.03;;;9.48;100.00
8705;BME280;4389;41.932;25.904;2024-03-07T10:41:44;-16326.59;;;9.69;100.00
8705;BME280;4389;41.932;25.904;2024-03-07T10:44:18;-16331.00;;;9.86;100.00
8705;BME280;4389;41.932;25.904;2024-03-07T10:46:52;-16325.00;;;9.63;100.00
8705;BME280;4389;41.932;25.904;2024-03-07T10:49:21;-16319.69;;;9.43;100.00
8705;BME280;4389;41.932;25.904;2024-03-07T10:52:03;-16319.94;;;9.44;100.00
8705;BME280;4389;41.932;25.904;2024-03-07T10:54:38;-16317.81;;;9.36;100.00
8705;BME280;4389;41.932;25.904;2024-03-07T10:57:18;-16317.28;;;9.34;100.00
8705;BME280;4389;41.932;25.904;2024-03-07T10:59:50;-16317.03;;;9.33;100.00
8705;BME280;4389;41.932;25.904;2024-03-07T11:02:27;-16316.50;;;9.31;100.00
8705;BME280;4389;41.932;25.904;2024-03-07T11:05:01;-16314.50;;;9.24;100.00
8705;BME280;4389;41.932;25.904;2024-03-07T11:07:32;-16311.69;;;9.13;100.00
8705;BME280;4389;41.932;25.904;2024-03-07T11:10:00;-16310.78;;;9.10;100.00
8705;BME280;4389;41.932;25.904;2024-03-07T11:12:29;-16313.84;;;9.21;100.00
8705;BME280;4389;41.932;25.904;2024-03-07T11:14:57;-16316.38;;;9.31;100.00
8705;BME280;4389;41.932;25.904;2024-03-07T11:17:24;-16314.09;;;9.22;100.00
8705;BME280;4389;41.932;25.904;2024-03-07T11:19:51;-16314.38;;;9.23;100.00
8705;BME280;4389;41.932;25.904;2024-03-07T11:22:28;-16314.63;;;9.24;100.00
8705;BME280;4389;41.932;25.904;2024-03-07T11:25:05;-16314.50;;;9.24;100.00
8705;BME280;4389;41.932;25.904;2024-03-07T11:27:36;-16317.56;;;9.35;100.00
8705;BME280;4389;41.932;25.904;2024-03-07T11:30:08;-16321.28;;;9.49;100.00
8705;BME280;4389;41.932;25.904;2024-03-07T11:32:35;-16323.94;;;9.59;100.00
8705;BME280;4389;41.932;25.904;2024-03-07T11:35:04;-16324.22;;;9.60;100.00
8705;BME280;4389;41.932;25.904;2024-03-07T11:37:40;-16327.13;;;9.71;100.00
8705;BME280;4389;41.932;25.904;2024-03-07T11:40:12;-16321.28;;;9.49;100.00
8705;BME280;4389;41.932;25.904;2024-03-07T11:42:46;-16316.75;;;9.32;100.00
8705;BME280;4389;41.932;25.904;2024-03-07T11:45:13;-16314.63;;;9.24;100.00
8705;BME280;4389;41.932;25.904;2024-03-07T11:47:50;-16315.69;;;9.28;100.00
8705;BME280;4389;41.932;25.904;2024-03-07T11:50:22;-16316.22;;;9.30;100.00
8705;BME280;4389;41.932;25.904;2024-03-07T11:52:51;-16318.63;;;9.39;100.00
8705;BME280;4389;41.932;25.904;2024-03-07T11:55:22;-16316.22;;;9.30;100.00
8705;BME280;4389;41.932;25.904;2024-03-07T11:57:49;-16315.16;;;9.26;100.00
8705;BME280;4389;41.932;25.904;2024-03-07T12:00:18;-16315.16;;;9.26;100.00
8705;BME280;4389;41.932;25.904;2024-03-07T12:02:45;-16315.16;;;9.26;100.00
8705;BME280;4389;41.932;25.904;2024-03-07T12:05:14;-16315.97;;;9.29;100.00
8705;BME280;4389;41.932;25.904;2024-03-07T12:07:42;-16316.63;;;9.32;100.00
8705;BME280;4389;41.932;25.904;2024-03-07T12:10:09;-16316.75;;;9.32;100.00
8705;BME280;4389;41.932;25.904;2024-03-07T12:12:38;-16316.75;;;9.32;100.00
8705;BME280;4389;41.932;25.904;2024-03-07T12:15:06;-16317.56;;;9.35;100.00
8705;BME280;4389;41.932;25.904;2024-03-07T12:17:41;-16316.38;;;9.31;100.00
8705;BME280;4389;41.932;25.904;2024-03-07T12:20:09;-16316.50;;;9.31;100.00
8705;BME280;4389;41.932;25.904;2024-03-07T12:22:50;-16315.69;;;9.28;100.00
8705;BME280;4389;41.932;25.904;2024-03-07T12:25:20;-16318.34;;;9.38;100.00
8705;BME280;4389;41.932;25.904;2024-03-07T12:28:01;-16323.53;;;9.58;100.00
8705;BME280;4389;41.932;25.904;2024-03-07T12:30:32;-16326.34;;;9.68;100.00
8705;BME280;4389;41.932;25.904;2024-03-07T12:32:59;-16324.22;;;9.60;100.00
8705;BME280;4389;41.932;25.904;2024-03-07T12:35:29;-16324.88;;;9.63;100.00
8705;BME280;4389;41.932;25.904;2024-03-07T12:37:57;-16322.59;;;9.54;100.00
8705;BME280;4389;41.932;25.904;2024-03-07T12:40:25;-16325.53;;;9.65;100.00
8705;BME280;4389;41.932;25.904;2024-03-07T12:42:55;-16326.59;;;9.69;100.00
8705;BME280;4389;41.932;25.904;2024-03-07T12:45:23;-16323.41;;;9.57;100.00
8705;BME280;4389;41.932;25.904;2024-03-07T12:47:51;-16326.34;;;9.68;100.00
8705;BME280;4389;41.932;25.904;2024-03-07T12:50:20;-16321.81;;;9.51;100.00
8705;BME280;4389;41.932;25.904;2024-03-07T12:52:47;-16315.44;;;9.27;100.00
8705;BME280;4389;41.932;25.904;2024-03-07T12:55:16;-16308.78;;;9.02;100.00
8705;BME280;4389;41.932;25.904;2024-03-07T12:57:47;-16310.78;;;9.10;100.00
8705;BME280;4389;41.932;25.904;2024-03-07T13:00:16;-16305.56;;;8.90;100.00
8705;BME280;4389;41.932;25.904;2024-03-07T13:02:48;-16304.50;;;8.87;100.00
8705;BME280;4389;41.932;25.904;2024-03-07T13:05:15;-16307.44;;;8.97;100.00
8705;BME280;4389;41.932;25.904;2024-03-07T13:07:48;-16306.91;;;8.95;100.00